sensor_id;sensor_type;location;lat;lon;timestamp;pressure;altitude;pressure_sealevel;temperature;humidity
79129;BME280;68529;43.286;23.360;2024-01-30T00:00:21;101622.56;;;3.47;58.56
79129;BME280;68529;43.286;23.360;2024-01-30T00:02:46;101617.25;;;3.44;58.03
79129;BME280;68529;43.286;23.360;2024-01-30T00:05:12;101621.63;;;3.45;58.28
79129;BME280;68529;43.286;23.360;2024-01-30T00:07:37;101616.28;;;3.41;58.09
79129;BME280;68529;43.286;23.360;2024-01-30T00:10:03;101622.25;;;3.38;58.47
79129;BME280;68529;43.286;23.360;2024-01-30T00:12:28;101624.75;;;3.35;58.95
79129;BME280;68529;43.286;23.360;2024-01-30T00:14:54;101625.53;;;3.33;58.69
79129;BME280;68529;43.286;23.360;2024-01-30T00:17:19;101629.13;;;3.36;58.90
79129;BME280;68529;43.286;23.360;2024-01-30T00:19:46;101631.69;;;3.35;58.57
79129;BME280;68529;43.286;23.360;2024-01-30T00:22:11;101630.63;;;3.30;58.86
79129;BME280;68529;43.286;23.360;2024-01-30T00:24:37;101628.91;;;3.30;58.44
79129;BME280;68529;43.286;23.360;2024-01-30T00:27:02;101630.84;;;3.36;59.38
79129;BME280;68529;43.286;23.360;2024-01-30T00:29:28;101629.63;;;3.51;59.31
79129;BME280;68529;43.286;23.360;2024-01-30T00:31:56;101621.84;;;3.51;59.17
79129;BME280;68529;43.286;23.360;2024-01-30T00:34:22;101632.97;;;3.47;59.03
79129;BME280;68529;43.286;23.360;2024-01-30T00:36:47;101629.44;;;3.45;59.22
79129;BME280;68529;43.286;23.360;2024-01-30T00:39:12;101634.56;;;3.44;58.58
79129;BME280;68529;43.286;23.360;2024-01-30T00:41:40;101627.75;;;3.47;58.50
79129;BME280;68529;43.286;23.360;2024-01-30T00:44:05;101632.13;;;3.48;59.16
79129;BME280;68529;43.286;23.360;2024-01-30T00:46:31;101630.41;;;3.49;59.21
79129;BME280;68529;43.286;23.360;2024-01-30T00:48:56;101632.22;;;3.51;59.39
79129;BME280;68529;43.286;23.360;2024-01-30T00:51:22;101625.38;;;3.53;59.05
79129;BME280;68529;43.286;23.360;2024-01-30T00:53:47;101633.06;;;3.50;59.20
79129;BME280;68529;43.286;23.360;2024-01-30T00:56:12;101632.31;;;3.54;59.22
79129;BME280;68529;43.286;23.360;2024-01-30T00:58:38;101630.47;;;3.50;59.27
79129;BME280;68529;43.286;23.360;2024-01-30T01:01:03;101634.63;;;3.45;58.74
79129;BME280;68529;43.286;23.360;2024-01-30T01:03:29;101631.06;;;3.43;59.17
79129;BME280;68529;43.286;23.360;2024-01-30T01:05:54;101632.75;;;3.41;59.08
79129;BME280;68529;43.286;23.360;2024-01-30T01:08:20;101635.44;;;3.44;59.40
79129;BME280;68529;43.286;23.360;2024-01-30T01:10:45;101625.97;;;3.46;59.39
79129;BME280;68529;43.286;23.360;2024-01-30T01:13:10;101638.19;;;3.49;59.47
79129;BME280;68529;43.286;23.360;2024-01-30T01:15:36;101633.00;;;3.49;59.44
79129;BME280;68529;43.286;23.360;2024-01-30T01:18:02;101627.72;;;3.46;59.15
79129;BME280;68529;43.286;23.360;2024-01-30T01:20:28;101628.09;;;3.31;59.41
79129;BME280;68529;43.286;23.360;2024-01-30T01:22:53;101623.38;;;3.20;59.21
79129;BME280;68529;43.286;23.360;2024-01-30T01:25:19;101619.75;;;3.15;59.50
79129;BME280;68529;43.286;23.360;2024-01-30T01:27:44;101619.78;;;3.16;59.85
79129;BME280;68529;43.286;23.360;2024-01-30T01:30:16;101614.69;;;3.19;60.18
79129;BME280;68529;43.286;23.360;2024-01-30T01:32:47;101616.59;;;3.23;59.84
79129;BME280;68529;43.286;23.360;2024-01-30T01:35:20;101618.09;;;3.17;59.81
79129;BME280;68529;43.286;23.360;2024-01-30T01:37:45;101621.47;;;3.14;59.87
79129;BME280;68529;43.286;23.360;2024-01-30T01:40:10;101621.78;;;3.23;60.08
79129;BME280;68529;43.286;23.360;2024-01-30T01:42:36;101621.03;;;3.27;59.85
79129;BME280;68529;43.286;23.360;2024-01-30T01:45:01;101612.22;;;3.22;60.07
79129;BME280;68529;43.286;23.360;2024-01-30T01:47:27;101627.91;;;3.00;59.80
79129;BME280;68529;43.286;23.360;2024-01-30T01:49:52;101625.84;;;2.90;60.11
79129;BME280;68529;43.286;23.360;2024-01-30T01:52:18;101618.44;;;3.02;60.40
79129;BME280;68529;43.286;23.360;2024-01-30T01:54:43;101623.75;;;3.05;59.87
79129;BME280;68529;43.286;23.360;2024-01-30T01:57:09;101617.94;;;3.12;60.00
79129;BME280;68529;43.286;23.360;2024-01-30T01:59:34;101620.69;;;3.17;59.64
79129;BME280;68529;43.286;23.360;2024-01-30T02:02:02;101616.84;;;3.06;59.91
79129;BME280;68529;43.286;23.360;2024-01-30T02:04:28;101620.66;;;2.90;60.80
79129;BME280;68529;43.286;23.360;2024-01-30T02:06:53;101619.28;;;3.01;60.21
79129;BME280;68529;43.286;23.360;2024-01-30T02:09:19;101617.72;;;3.06;60.12
79129;BME280;68529;43.286;23.360;2024-01-30T02:11:44;101630.81;;;3.09;60.30
79129;BME280;68529;43.286;23.360;2024-01-30T02:14:10;101618.78;;;3.13;59.77
79129;BME280;68529;43.286;23.360;2024-01-30T02:16:35;101625.56;;;3.08;59.61
79129;BME280;68529;43.286;23.360;2024-01-30T02:19:01;101625.44;;;2.79;60.42
79129;BME280;68529;43.286;23.360;2024-01-30T02:21:27;101629.25;;;2.89;60.13
79129;BME280;68529;43.286;23.360;2024-01-30T02:23:53;101619.97;;;2.96;60.37
79129;BME280;68529;43.286;23.360;2024-01-30T02:26:20;101627.69;;;2.94;60.31
79129;BME280;68529;43.286;23.360;2024-01-30T02:28:45;101626.75;;;2.92;60.02
79129;BME280;68529;43.286;23.360;2024-01-30T02:31:10;101627.69;;;2.94;60.34
79129;BME280;68529;43.286;23.360;2024-01-30T02:33:36;101631.38;;;3.01;60.82
79129;BME280;68529;43.286;23.360;2024-01-30T02:36:01;101627.34;;;3.09;60.29
79129;BME280;68529;43.286;23.360;2024-01-30T02:38:27;101625.94;;;2.93;60.28
79129;BME280;68529;43.286;23.360;2024-01-30T02:40:54;101622.50;;;2.94;60.32
79129;BME280;68529;43.286;23.360;2024-01-30T02:43:19;101614.81;;;2.97;60.30
79129;BME280;68529;43.286;23.360;2024-01-30T02:45:44;101608.84;;;3.00;60.28
79129;BME280;68529;43.286;23.360;2024-01-30T02:48:10;101612.91;;;2.91;60.14
79129;BME280;68529;43.286;23.360;2024-01-30T02:50:35;101616.28;;;2.89;60.72
79129;BME280;68529;43.286;23.360;2024-01-30T02:53:00;101613.88;;;2.95;60.59
79129;BME280;68529;43.286;23.360;2024-01-30T02:55:26;101614.97;;;3.02;60.77
79129;BME280;68529;43.286;23.360;2024-01-30T02:57:51;101613.44;;;3.07;60.74
79129;BME280;68529;43.286;23.360;2024-01-30T03:00:17;101611.63;;;3.04;60.07
79129;BME280;68529;43.286;23.360;2024-01-30T03:02:44;101607.94;;;2.74;60.99
79129;BME280;68529;43.286;23.360;2024-01-30T03:05:10;101612.72;;;2.62;60.91
79129;BME280;68529;43.286;23.360;2024-01-30T03:07:35;101611.38;;;2.73;61.06
79129;BME280;68529;43.286;23.360;2024-01-30T03:10:01;101615.44;;;2.90;61.38
79129;BME280;68529;43.286;23.360;2024-01-30T03:12:26;101607.09;;;2.99;60.73
79129;BME280;68529;43.286;23.360;2024-01-30T03:14:51;101611.41;;;2.98;60.49
79129;BME280;68529;43.286;23.360;2024-01-30T03:17:17;101610.44;;;2.96;61.01
79129;BME280;68529;43.286;23.360;2024-01-30T03:19:43;101608.69;;;2.70;60.75
79129;BME280;68529;43.286;23.360;2024-01-30T03:22:08;101610.81;;;2.81;61.48
79129;BME280;68529;43.286;23.360;2024-01-30T03:24:33;101603.41;;;2.92;61.04
79129;BME280;68529;43.286;23.360;2024-01-30T03:26:59;101603.63;;;2.98;60.38
79129;BME280;68529;43.286;23.360;2024-01-30T03:29:24;101603.16;;;3.10;60.98
79129;BME280;68529;43.286;23.360;2024-01-30T03:31:50;101598.13;;;3.16;60.59
79129;BME280;68529;43.286;23.360;2024-01-30T03:34:15;101596.59;;;3.21;60.47
79129;BME280;68529;43.286;23.360;2024-01-30T03:36:40;101595.53;;;3.16;60.50
79129;BME280;68529;43.286;23.360;2024-01-30T03:39:06;101595.69;;;3.20;60.35
79129;BME280;68529;43.286;23.360;2024-01-30T03:41:31;101594.84;;;3.21;60.25
79129;BME280;68529;43.286;23.360;2024-01-30T03:43:57;101595.75;;;3.22;60.47
79129;BME280;68529;43.286;23.360;2024-01-30T03:46:22;101596.59;;;3.21;60.08
79129;BME280;68529;43.286;23.360;2024-01-30T03:48:48;101592.94;;;3.16;60.13
79129;BME280;68529;43.286;23.360;2024-01-30T03:51:13;101600.78;;;3.17;60.47
79129;BME280;68529;43.286;23.360;2024-01-30T03:53:41;101598.22;;;3.19;60.85
79129;BME280;68529;43.286;23.360;2024-01-30T03:56:07;101595.53;;;3.16;60.46
79129;BME280;68529;43.286;23.360;2024-01-30T03:58:32;101599.75;;;3.12;60.72
79129;BME280;68529;43.286;23.360;2024-01-30T04:00:58;101600.81;;;3.19;61.01
79129;BME280;68529;43.286;23.360;2024-01-30T04:03:23;101600.69;;;3.14;60.33
79129;BME280;68529;43.286;23.360;2024-01-30T04:05:49;101597.31;;;3.17;60.80
79129;BME280;68529;43.286;23.360;2024-01-30T04:08:15;101599.59;;;3.08;60.63
79129;BME280;68529;43.286;23.360;2024-01-30T04:10:40;101599.47;;;3.05;60.54
79129;BME280;68529;43.286;23.360;2024-01-30T04:13:05;101598.69;;;3.07;60.87
79129;BME280;68529;43.286;23.360;2024-01-30T04:15:31;101595.81;;;2.98;60.55
79129;BME280;68529;43.286;23.360;2024-01-30T04:17:59;101599.31;;;2.99;60.77
79129;BME280;68529;43.286;23.360;2024-01-30T04:20:24;101600.94;;;2.97;60.46
79129;BME280;68529;43.286;23.360;2024-01-30T04:22:50;101598.25;;;2.93;60.23
79129;BME280;68529;43.286;23.360;2024-01-30T04:25:16;101605.06;;;2.90;60.43
79129;BME280;68529;43.286;23.360;2024-01-30T04:27:41;101595.53;;;2.90;60.60
79129;BME280;68529;43.286;23.360;2024-01-30T04:30:07;101601.72;;;2.94;60.59
79129;BME280;68529;43.286;23.360;2024-01-30T04:32:32;101611.22;;;2.93;60.74
79129;BME280;68529;43.286;23.360;2024-01-30T04:34:58;101604.22;;;2.91;61.02
79129;BME280;68529;43.286;23.360;2024-01-30T04:37:23;101614.59;;;2.91;60.30
79129;BME280;68529;43.286;23.360;2024-01-30T04:39:49;101614.59;;;2.91;60.59
79129;BME280;68529;43.286;23.360;2024-01-30T04:42:14;101610.53;;;2.99;61.05
79129;BME280;68529;43.286;23.360;2024-01-30T04:44:39;101605.56;;;3.05;61.05
79129;BME280;68529;43.286;23.360;2024-01-30T04:47:05;101607.38;;;3.08;60.88
79129;BME280;68529;43.286;23.360;2024-01-30T04:49:33;101609.06;;;3.06;61.00
79129;BME280;68529;43.286;23.360;2024-01-30T04:51:58;101613.47;;;3.08;60.80
79129;BME280;68529;43.286;23.360;2024-01-30T04:54:24;101606.34;;;3.03;60.77
79129;BME280;68529;43.286;23.360;2024-01-30T04:56:49;101619.28;;;3.01;60.50
79129;BME280;68529;43.286;23.360;2024-01-30T04:59:15;101617.50;;;3.00;60.73
79129;BME280;68529;43.286;23.360;2024-01-30T05:01:40;101619.91;;;2.94;60.84
79129;BME280;68529;43.286;23.360;2024-01-30T05:04:09;101618.41;;;3.01;60.79
79129;BME280;68529;43.286;23.360;2024-01-30T05:06:34;101623.41;;;2.96;60.51
79129;BME280;68529;43.286;23.360;2024-01-30T05:08:59;101623.06;;;2.85;60.97
79129;BME280;68529;43.286;23.360;2024-01-30T05:11:25;101621.47;;;2.40;61.20
79129;BME280;68529;43.286;23.360;2024-01-30T05:13:50;101620.69;;;2.43;61.23
79129;BME280;68529;43.286;23.360;2024-01-30T05:16:16;101625.09;;;2.45;61.63
79129;BME280;68529;43.286;23.360;2024-01-30T05:18:41;101624.66;;;2.57;61.85
79129;BME280;68529;43.286;23.360;2024-01-30T05:21:06;101615.44;;;2.65;61.36
79129;BME280;68529;43.286;23.360;2024-01-30T05:23:32;101622.59;;;2.72;61.58
79129;BME280;68529;43.286;23.360;2024-01-30T05:25:57;101627.22;;;2.80;61.19
79129;BME280;68529;43.286;23.360;2024-01-30T05:28:24;101635.78;;;2.78;61.08
79129;BME280;68529;43.286;23.360;2024-01-30T05:30:49;101635.44;;;2.69;61.36
79129;BME280;68529;43.286;23.360;2024-01-30T05:33:14;101626.00;;;2.71;61.44
79129;BME280;68529;43.286;23.360;2024-01-30T05:35:40;101633.75;;;2.69;60.99
79129;BME280;68529;43.286;23.360;2024-01-30T05:38:05;101632.44;;;2.57;60.88
79129;BME280;68529;43.286;23.360;2024-01-30T05:40:31;101635.88;;;2.57;61.68
79129;BME280;68529;43.286;23.360;2024-01-30T05:42:56;101637.94;;;2.66;61.54
79129;BME280;68529;43.286;23.360;2024-01-30T05:45:26;101633.84;;;2.72;61.21
79129;BME280;68529;43.286;23.360;2024-01-30T05:47:52;101636.44;;;2.72;61.51
79129;BME280;68529;43.286;23.360;2024-01-30T05:50:17;101641.53;;;2.69;61.84
79129;BME280;68529;43.286;23.360;2024-01-30T05:52:43;101642.75;;;2.31;61.41
79129;BME280;68529;43.286;23.360;2024-01-30T05:55:08;101635.34;;;2.42;61.75
79129;BME280;68529;43.286;23.360;2024-01-30T05:57:34;101639.22;;;2.53;61.86
79129;BME280;68529;43.286;23.360;2024-01-30T06:00:00;101638.78;;;2.65;61.67
79129;BME280;68529;43.286;23.360;2024-01-30T06:02:25;101644.16;;;2.71;61.72
79129;BME280;68529;43.286;23.360;2024-01-30T06:04:50;101642.97;;;2.61;61.16
79129;BME280;68529;43.286;23.360;2024-01-30T06:07:16;101644.44;;;2.31;61.86
79129;BME280;68529;43.286;23.360;2024-01-30T06:09:42;101644.41;;;2.07;62.48
79129;BME280;68529;43.286;23.360;2024-01-30T06:12:08;101638.31;;;2.29;62.15
79129;BME280;68529;43.286;23.360;2024-01-30T06:14:33;101641.53;;;2.46;62.28
79129;BME280;68529;43.286;23.360;2024-01-30T06:16:59;101648.16;;;2.61;62.00
79129;BME280;68529;43.286;23.360;2024-01-30T06:19:24;101650.34;;;2.74;61.88
79129;BME280;68529;43.286;23.360;2024-01-30T06:21:50;101649.66;;;2.78;61.99
79129;BME280;68529;43.286;23.360;2024-01-30T06:24:15;101651.59;;;2.85;61.55
79129;BME280;68529;43.286;23.360;2024-01-30T06:26:41;101644.25;;;2.98;61.52
79129;BME280;68529;43.286;23.360;2024-01-30T06:29:06;101652.81;;;2.95;60.66
79129;BME280;68529;43.286;23.360;2024-01-30T06:31:32;101648.34;;;2.91;61.54
79129;BME280;68529;43.286;23.360;2024-01-30T06:33:58;101651.47;;;2.81;61.50
79129;BME280;68529;43.286;23.360;2024-01-30T06:36:23;101653.38;;;2.63;61.29
79129;BME280;68529;43.286;23.360;2024-01-30T06:38:48;101658.47;;;2.60;60.90
79129;BME280;68529;43.286;23.360;2024-01-30T06:41:14;101653.69;;;2.70;61.32
79129;BME280;68529;43.286;23.360;2024-01-30T06:43:39;101654.09;;;2.82;61.62
79129;BME280;68529;43.286;23.360;2024-01-30T06:46:04;101654.44;;;2.91;61.54
79129;BME280;68529;43.286;23.360;2024-01-30T06:48:30;101650.22;;;2.95;61.51
79129;BME280;68529;43.286;23.360;2024-01-30T06:50:56;101661.69;;;3.02;61.05
79129;BME280;68529;43.286;23.360;2024-01-30T06:53:22;101661.91;;;3.08;61.08
79129;BME280;68529;43.286;23.360;2024-01-30T06:55:48;101661.00;;;3.07;60.74
79129;BME280;68529;43.286;23.360;2024-01-30T06:58:13;101660.53;;;2.93;60.97
79129;BME280;68529;43.286;23.360;2024-01-30T07:00:38;101656.13;;;2.91;61.22
79129;BME280;68529;43.286;23.360;2024-01-30T07:03:04;101658.28;;;3.03;61.40
79129;BME280;68529;43.286;23.360;2024-01-30T07:05:29;101665.59;;;3.14;61.40
79129;BME280;68529;43.286;23.360;2024-01-30T07:07:55;101663.31;;;3.23;61.19
79129;BME280;68529;43.286;23.360;2024-01-30T07:10:20;101666.28;;;3.09;60.87
79129;BME280;68529;43.286;23.360;2024-01-30T07:12:46;101672.81;;;2.74;60.99
79129;BME280;68529;43.286;23.360;2024-01-30T07:15:11;101671.06;;;2.73;60.97
79129;BME280;68529;43.286;23.360;2024-01-30T07:17:37;101675.19;;;2.91;61.30
79129;BME280;68529;43.286;23.360;2024-01-30T07:20:03;101661.13;;;3.10;61.33
79129;BME280;68529;43.286;23.360;2024-01-30T07:22:31;101666.97;;;3.28;60.89
79129;BME280;68529;43.286;23.360;2024-01-30T07:24:56;101671.69;;;3.40;60.42
79129;BME280;68529;43.286;23.360;2024-01-30T07:27:22;101666.00;;;3.51;60.00
79129;BME280;68529;43.286;23.360;2024-01-30T07:29:47;101672.38;;;3.61;60.10
79129;BME280;68529;43.286;23.360;2024-01-30T07:32:13;101675.50;;;3.78;60.02
79129;BME280;68529;43.286;23.360;2024-01-30T07:34:38;101671.50;;;3.87;59.84
79129;BME280;68529;43.286;23.360;2024-01-30T07:37:03;101674.88;;;3.85;59.42
79129;BME280;68529;43.286;23.360;2024-01-30T07:39:29;101685.44;;;3.91;59.32
79129;BME280;68529;43.286;23.360;2024-01-30T07:41:54;101677.84;;;3.97;59.20
79129;BME280;68529;43.286;23.360;2024-01-30T07:44:20;101675.34;;;4.00;59.16
79129;BME280;68529;43.286;23.360;2024-01-30T07:46:46;101675.34;;;4.00;58.92
79129;BME280;68529;43.286;23.360;2024-01-30T07:49:11;101673.72;;;4.03;58.92
79129;BME280;68529;43.286;23.360;2024-01-30T07:51:38;101676.38;;;4.05;58.76
79129;BME280;68529;43.286;23.360;2024-01-30T07:54:05;101679.16;;;4.11;58.92
79129;BME280;68529;43.286;23.360;2024-01-30T07:56:30;101685.34;;;4.15;58.79
79129;BME280;68529;43.286;23.360;2024-01-30T07:58:55;101680.16;;;4.16;58.93
79129;BME280;68529;43.286;23.360;2024-01-30T08:01:21;101679.66;;;4.28;58.72
79129;BME280;68529;43.286;23.360;2024-01-30T08:03:46;101677.06;;;4.28;58.36
79129;BME280;68529;43.286;23.360;2024-01-30T08:06:11;101682.31;;;4.29;58.53
79129;BME280;68529;43.286;23.360;2024-01-30T08:08:37;101677.25;;;4.34;58.45
79129;BME280;68529;43.286;23.360;2024-01-30T08:11:03;101682.66;;;4.41;58.21
79129;BME280;68529;43.286;23.360;2024-01-30T08:13:28;101676.44;;;4.35;57.96
79129;BME280;68529;43.286;23.360;2024-01-30T08:15:54;101678.41;;;4.43;58.47
79129;BME280;68529;43.286;23.360;2024-01-30T08:18:19;101682.03;;;4.48;58.24
79129;BME280;68529;43.286;23.360;2024-01-30T08:20:44;101679.69;;;4.57;58.20
79129;BME280;68529;43.286;23.360;2024-01-30T08:23:10;101680.44;;;4.53;58.11
79129;BME280;68529;43.286;23.360;2024-01-30T08:25:35;101681.19;;;4.49;58.13
79129;BME280;68529;43.286;23.360;2024-01-30T08:28:01;101675.44;;;4.61;58.04
79129;BME280;68529;43.286;23.360;2024-01-30T08:30:27;101675.78;;;4.73;57.81
79129;BME280;68529;43.286;23.360;2024-01-30T08:32:52;101680.47;;;4.85;57.59
79129;BME280;68529;43.286;23.360;2024-01-30T08:35:18;101677.25;;;4.95;57.46
79129;BME280;68529;43.286;23.360;2024-01-30T08:37:43;101678.44;;;5.06;56.99
79129;BME280;68529;43.286;23.360;2024-01-30T08:40:09;101678.59;;;5.12;57.03
79129;BME280;68529;43.286;23.360;2024-01-30T08:42:34;101675.28;;;5.17;57.17
79129;BME280;68529;43.286;23.360;2024-01-30T08:44:59;101672.72;;;5.19;56.78
79129;BME280;68529;43.286;23.360;2024-01-30T08:47:25;101671.03;;;5.21;57.09
79129;BME280;68529;43.286;23.360;2024-01-30T08:49:51;101680.09;;;5.35;56.93
79129;BME280;68529;43.286;23.360;2024-01-30T08:52:17;101679.38;;;5.41;56.69
79129;BME280;68529;43.286;23.360;2024-01-30T08:54:42;101669.94;;;5.46;56.92
79129;BME280;68529;43.286;23.360;2024-01-30T08:57:08;101667.47;;;5.52;56.61
79129;BME280;68529;43.286;23.360;2024-01-30T08:59:33;101681.50;;;5.57;56.37
79129;BME280;68529;43.286;23.360;2024-01-30T09:01:59;101675.66;;;5.67;56.25
79129;BME280;68529;43.286;23.360;2024-01-30T09:04:24;101674.00;;;5.70;55.67
79129;BME280;68529;43.286;23.360;2024-01-30T09:06:50;101670.34;;;5.98;55.27
79129;BME280;68529;43.286;23.360;2024-01-30T09:09:16;101670.78;;;6.16;54.54
79129;BME280;68529;43.286;23.360;2024-01-30T09:11:43;101671.09;;;6.31;53.90
79129;BME280;68529;43.286;23.360;2024-01-30T09:14:08;101658.75;;;7.10;52.57
79129;BME280;68529;43.286;23.360;2024-01-30T09:16:34;101668.28;;;6.63;50.19
79129;BME280;68529;43.286;23.360;2024-01-30T09:18:59;101655.13;;;7.01;50.34
79129;BME280;68529;43.286;23.360;2024-01-30T09:21:24;101658.97;;;7.22;49.87
79129;BME280;68529;43.286;23.360;2024-01-30T09:23:50;101659.63;;;7.10;50.79
79129;BME280;68529;43.286;23.360;2024-01-30T09:26:15;101660.91;;;6.42;49.21
79129;BME280;68529;43.286;23.360;2024-01-30T09:28:41;101660.03;;;6.43;51.25
79129;BME280;68529;43.286;23.360;2024-01-30T09:31:11;101652.84;;;7.20;49.12
79129;BME280;68529;43.286;23.360;2024-01-30T09:33:37;101654.16;;;7.98;48.35
79129;BME280;68529;43.286;23.360;2024-01-30T09:36:03;101645.22;;;8.47;45.84
79129;BME280;68529;43.286;23.360;2024-01-30T09:38:28;101644.84;;;8.21;42.22
79129;BME280;68529;43.286;23.360;2024-01-30T09:40:54;101639.38;;;8.71;43.17
79129;BME280;68529;43.286;23.360;2024-01-30T09:43:22;101628.13;;;8.79;40.68
79129;BME280;68529;43.286;23.360;2024-01-30T09:45:50;101618.09;;;9.23;41.29
79129;BME280;68529;43.286;23.360;2024-01-30T09:48:15;101627.66;;;9.15;40.25
79129;BME280;68529;43.286;23.360;2024-01-30T09:50:41;101632.63;;;8.91;38.45
79129;BME280;68529;43.286;23.360;2024-01-30T09:53:08;101633.59;;;8.98;38.75
79129;BME280;68529;43.286;23.360;2024-01-30T09:55:35;101628.47;;;7.76;38.55
79129;BME280;68529;43.286;23.360;2024-01-30T09:58:01;101631.25;;;7.85;40.29
79129;BME280;68529;43.286;23.360;2024-01-30T10:00:27;101627.38;;;8.19;38.24
79129;BME280;68529;43.286;23.360;2024-01-30T10:02:52;101624.69;;;8.14;39.98
79129;BME280;68529;43.286;23.360;2024-01-30T10:05:19;101625.84;;;8.33;38.53
79129;BME280;68529;43.286;23.360;2024-01-30T10:07:54;101623.84;;;8.86;37.14
79129;BME280;68529;43.286;23.360;2024-01-30T10:10:22;101624.28;;;8.49;35.35
79129;BME280;68529;43.286;23.360;2024-01-30T10:12:48;101620.72;;;8.42;35.94
79129;BME280;68529;43.286;23.360;2024-01-30T10:15:14;101617.75;;;8.16;35.68
79129;BME280;68529;43.286;23.360;2024-01-30T10:17:39;101624.78;;;8.20;36.76
79129;BME280;68529;43.286;23.360;2024-01-30T10:20:05;101620.88;;;8.56;37.66
79129;BME280;68529;43.286;23.360;2024-01-30T10:22:30;101616.91;;;8.91;35.70
79129;BME280;68529;43.286;23.360;2024-01-30T10:24:56;101607.16;;;8.78;34.94
79129;BME280;68529;43.286;23.360;2024-01-30T10:27:28;101601.44;;;9.15;36.67
79129;BME280;68529;43.286;23.360;2024-01-30T10:29:55;101599.13;;;9.56;35.04
79129;BME280;68529;43.286;23.360;2024-01-30T10:32:20;101607.28;;;8.87;34.00
79129;BME280;68529;43.286;23.360;2024-01-30T10:34:46;101593.91;;;8.66;35.77
79129;BME280;68529;43.286;23.360;2024-01-30T10:37:12;101600.72;;;9.34;36.11
79129;BME280;68529;43.286;23.360;2024-01-30T10:39:41;101592.38;;;8.83;34.37
79129;BME280;68529;43.286;23.360;2024-01-30T10:42:15;101606.41;;;8.91;34.76
79129;BME280;68529;43.286;23.360;2024-01-30T10:47:12;101590.84;;;9.06;34.45
79129;BME280;68529;43.286;23.360;2024-01-30T10:49:41;101578.78;;;9.23;35.43
79129;BME280;68529;43.286;23.360;2024-01-30T10:52:13;101586.53;;;9.11;33.80
79129;BME280;68529;43.286;23.360;2024-01-30T10:54:40;101577.91;;;9.27;33.77
79129;BME280;68529;43.286;23.360;2024-01-30T10:57:05;101573.09;;;9.86;34.62
79129;BME280;68529;43.286;23.360;2024-01-30T10:59:31;101569.38;;;9.51;33.06
79129;BME280;68529;43.286;23.360;2024-01-30T11:01:58;101566.03;;;9.78;34.56
79129;BME280;68529;43.286;23.360;2024-01-30T11:04:24;101561.13;;;10.50;34.73
79129;BME280;68529;43.286;23.360;2024-01-30T11:06:50;101561.91;;;10.19;33.52
79129;BME280;68529;43.286;23.360;2024-01-30T11:09:17;101567.09;;;10.07;32.89
79129;BME280;68529;43.286;23.360;2024-01-30T11:11:56;101560.19;;;10.24;33.64
79129;BME280;68529;43.286;23.360;2024-01-30T11:14:26;101558.56;;;10.84;33.83
79129;BME280;68529;43.286;23.360;2024-01-30T11:16:52;101557.66;;;10.55;33.10
79129;BME280;68529;43.286;23.360;2024-01-30T11:19:24;101551.50;;;10.43;32.96
79129;BME280;68529;43.286;23.360;2024-01-30T11:21:52;101549.75;;;10.53;32.58
79129;BME280;68529;43.286;23.360;2024-01-30T11:24:20;101545.16;;;9.99;31.81
79129;BME280;68529;43.286;23.360;2024-01-30T11:26:57;101546.63;;;9.50;33.10
79129;BME280;68529;43.286;23.360;2024-01-30T11:29:29;101533.69;;;9.83;32.93
79129;BME280;68529;43.286;23.360;2024-01-30T11:31:58;101538.38;;;10.56;34.08
79129;BME280;68529;43.286;23.360;2024-01-30T11:34:24;101546.25;;;10.46;31.60
79129;BME280;68529;43.286;23.360;2024-01-30T11:36:56;101529.59;;;10.38;32.79
79129;BME280;68529;43.286;23.360;2024-01-30T11:39:27;101526.13;;;10.59;31.93
79129;BME280;68529;43.286;23.360;2024-01-30T11:41:54;101526.16;;;10.82;31.73
79129;BME280;68529;43.286;23.360;2024-01-30T11:44:20;101517.41;;;10.77;32.33
79129;BME280;68529;43.286;23.360;2024-01-30T11:46:48;101512.13;;;11.36;33.61
79129;BME280;68529;43.286;23.360;2024-01-30T11:49:13;101502.34;;;11.97;33.12
79129;BME280;68529;43.286;23.360;2024-01-30T11:51:39;101505.66;;;12.35;32.97
79129;BME280;68529;43.286;23.360;2024-01-30T11:54:04;101500.44;;;12.31;31.09
79129;BME280;68529;43.286;23.360;2024-01-30T11:56:31;101504.13;;;11.89;32.07
79129;BME280;68529;43.286;23.360;2024-01-30T11:58:56;101505.91;;;11.79;30.88
79129;BME280;68529;43.286;23.360;2024-01-30T12:01:21;101498.06;;;10.38;31.80
79129;BME280;68529;43.286;23.360;2024-01-30T12:03:50;101495.50;;;11.19;33.48
79129;BME280;68529;43.286;23.360;2024-01-30T12:06:16;101486.63;;;11.66;32.33
79129;BME280;68529;43.286;23.360;2024-01-30T12:08:41;101497.22;;;11.41;30.84
79129;BME280;68529;43.286;23.360;2024-01-30T12:11:07;101493.66;;;10.27;30.73
79129;BME280;68529;43.286;23.360;2024-01-30T12:13:32;101487.59;;;10.66;33.38
79129;BME280;68529;43.286;23.360;2024-01-30T12:15:59;101494.56;;;10.48;31.44
79129;BME280;68529;43.286;23.360;2024-01-30T12:18:24;101486.69;;;10.56;32.89
79129;BME280;68529;43.286;23.360;2024-01-30T12:20:59;101476.97;;;10.22;32.16
79129;BME280;68529;43.286;23.360;2024-01-30T12:23:26;101482.34;;;10.69;33.78
79129;BME280;68529;43.286;23.360;2024-01-30T12:25:52;101479.69;;;10.60;32.31
79129;BME280;68529;43.286;23.360;2024-01-30T12:28:19;101470.09;;;10.83;32.48
79129;BME280;68529;43.286;23.360;2024-01-30T12:30:45;101470.03;;;11.33;33.08
79129;BME280;68529;43.286;23.360;2024-01-30T12:33:16;101462.06;;;11.60;33.10
79129;BME280;68529;43.286;23.360;2024-01-30T12:35:45;101464.75;;;11.46;32.04
79129;BME280;68529;43.286;23.360;2024-01-30T12:38:11;101465.66;;;11.24;33.05
79129;BME280;68529;43.286;23.360;2024-01-30T12:40:36;101467.34;;;11.48;33.27
79129;BME280;68529;43.286;23.360;2024-01-30T12:43:02;101462.16;;;11.16;32.74